createdAt,value
2023-06-29T00:00:17.013Z,95152
2023-06-29T00:03:42.358Z,95151
2023-06-29T00:07:07.503Z,95150
2023-06-29T00:10:32.675Z,95150
2023-06-29T00:13:57.860Z,95147
2023-06-29T00:17:23.093Z,95152
2023-06-29T00:20:48.240Z,95146
2023-06-29T00:24:13.427Z,95148
2023-06-29T00:27:38.654Z,95145
2023-06-29T00:31:03.899Z,95148
2023-06-29T00:34:29.089Z,95148
2023-06-29T00:37:54.639Z,95141
2023-06-29T00:41:19.714Z,95140
2023-06-29T00:44:44.940Z,95136
2023-06-29T00:48:10.168Z,95131
2023-06-29T00:51:35.354Z,95134
2023-06-29T00:55:00.632Z,95129
2023-06-29T00:58:25.828Z,95127
2023-06-29T01:01:51.058Z,95122
2023-06-29T01:05:16.271Z,95125
2023-06-29T01:08:41.539Z,95127
2023-06-29T01:12:06.789Z,95124
2023-06-29T01:15:31.958Z,95127
2023-06-29T01:18:57.183Z,95122
2023-06-29T01:22:22.437Z,95123
2023-06-29T01:25:47.556Z,95120
2023-06-29T01:29:12.781Z,95120
2023-06-29T01:32:37.983Z,95116
2023-06-29T01:36:03.162Z,95112
2023-06-29T01:39:28.379Z,95116
2023-06-29T01:42:53.558Z,95107
2023-06-29T01:46:18.833Z,95106
2023-06-29T01:49:43.986Z,95110
2023-06-29T01:53:09.194Z,95111
2023-06-29T01:56:34.419Z,95105
2023-06-29T01:59:59.630Z,95105
2023-06-29T02:03:24.913Z,95099
2023-06-29T02:06:49.999Z,95104
2023-06-29T02:10:15.187Z,95104
2023-06-29T02:13:40.358Z,95102
2023-06-29T02:17:05.620Z,95099
2023-06-29T02:20:30.931Z,95100
2023-06-29T02:23:56.015Z,95096
2023-06-29T02:27:21.241Z,95101
2023-06-29T02:30:46.449Z,95104
2023-06-29T02:34:11.645Z,95097
2023-06-29T02:37:36.889Z,95097
2023-06-29T02:41:02.061Z,95091
2023-06-29T02:44:27.284Z,95089
2023-06-29T02:47:52.473Z,95089
2023-06-29T02:51:17.696Z,95085
2023-06-29T02:54:42.942Z,95085
2023-06-29T02:58:08.119Z,95090
2023-06-29T03:01:33.392Z,95089
2023-06-29T03:04:58.510Z,95091
2023-06-29T03:08:23.715Z,95092
2023-06-29T03:11:48.926Z,95089
2023-06-29T03:15:14.062Z,95078
2023-06-29T03:18:39.273Z,95081
2023-06-29T03:22:04.504Z,95080
2023-06-29T03:25:29.714Z,95074
2023-06-29T03:28:54.959Z,95075
2023-06-29T03:32:20.190Z,95075
2023-06-29T03:35:45.575Z,95071
2023-06-29T03:39:10.605Z,95072
2023-06-29T03:42:35.798Z,95072
2023-06-29T03:46:01.000Z,95074
2023-06-29T03:49:26.174Z,95072
2023-06-29T03:52:51.324Z,95067
2023-06-29T03:56:16.507Z,95061
2023-06-29T03:59:41.685Z,95061
2023-06-29T04:03:07.018Z,95065
2023-06-29T04:06:32.035Z,95063
2023-06-29T04:09:57.219Z,95060
2023-06-29T04:13:22.423Z,95053
2023-06-29T04:16:47.701Z,95057
2023-06-29T04:20:12.915Z,95056
2023-06-29T04:23:38.143Z,95055
2023-06-29T04:27:03.340Z,95049
2023-06-29T04:30:28.583Z,95048
2023-06-29T04:33:53.783Z,95050
2023-06-29T04:37:19.036Z,95048
2023-06-29T04:40:44.245Z,95049
2023-06-29T04:44:09.533Z,95050
2023-06-29T04:47:35.280Z,95054
2023-06-29T04:51:00.577Z,95055
2023-06-29T04:54:25.757Z,95051
2023-06-29T04:57:50.970Z,95054
2023-06-29T05:01:16.238Z,95053
2023-06-29T05:04:41.461Z,95054
2023-06-29T05:08:06.723Z,95050
2023-06-29T05:11:33.822Z,95050
2023-06-29T05:14:57.221Z,95051
2023-06-29T05:18:22.489Z,95046
2023-06-29T05:21:47.737Z,95045
2023-06-29T05:25:13.007Z,95039
2023-06-29T05:28:38.260Z,95043
2023-06-29T05:32:03.487Z,95039
2023-06-29T05:35:28.734Z,95043
2023-06-29T05:38:53.955Z,95044
2023-06-29T05:42:19.249Z,95047
2023-06-29T05:45:44.545Z,95039
2023-06-29T05:49:09.710Z,95038
2023-06-29T05:52:37.930Z,95037
2023-06-29T05:56:04.132Z,95033
2023-06-29T05:59:29.421Z,95036
2023-06-29T06:02:54.721Z,95038
2023-06-29T06:06:19.928Z,95030
2023-06-29T06:09:45.181Z,95032
2023-06-29T06:13:10.484Z,95039
2023-06-29T06:16:35.769Z,95034
2023-06-29T06:20:00.933Z,95034
2023-06-29T06:23:26.133Z,95028
2023-06-29T06:26:51.395Z,95030
2023-06-29T06:30:16.628Z,95033
2023-06-29T06:33:41.872Z,95029
2023-06-29T06:37:07.182Z,95022
2023-06-29T06:40:32.380Z,95015
2023-06-29T06:43:57.595Z,95019
2023-06-29T06:47:22.862Z,95018
2023-06-29T06:50:48.129Z,95012
2023-06-29T06:54:13.369Z,95012
2023-06-29T06:57:38.587Z,95011
2023-06-29T07:01:03.826Z,95014
2023-06-29T07:04:29.094Z,95016
2023-06-29T07:07:54.352Z,95013
2023-06-29T07:11:19.699Z,95006
2023-06-29T07:14:44.911Z,95007
2023-06-29T07:18:10.171Z,95007
2023-06-29T07:21:35.499Z,95007
2023-06-29T07:25:00.707Z,95008
2023-06-29T07:28:26.012Z,95004
2023-06-29T07:31:51.227Z,95000
2023-06-29T07:35:16.487Z,95004
2023-06-29T07:38:41.729Z,94994
2023-06-29T07:42:07.025Z,95001
2023-06-29T07:45:32.303Z,94996
2023-06-29T07:48:57.560Z,94994
2023-06-29T07:52:22.839Z,94987
2023-06-29T07:55:48.099Z,94989
2023-06-29T07:59:13.372Z,94986
2023-06-29T08:02:38.678Z,94988
2023-06-29T08:09:29.168Z,94983
2023-06-29T08:12:54.444Z,94985
2023-06-29T08:16:19.713Z,94981
2023-06-29T08:19:45.028Z,94986
2023-06-29T08:23:10.252Z,94984
2023-06-29T08:26:36.256Z,94981
2023-06-29T08:30:01.506Z,94974
2023-06-29T08:33:26.885Z,94970
2023-06-29T08:36:52.822Z,94963
2023-06-29T08:40:17.229Z,94964
2023-06-29T08:43:42.497Z,94956
2023-06-29T08:47:07.739Z,94957
2023-06-29T08:50:32.964Z,94954
2023-06-29T08:53:58.262Z,94952
2023-06-29T08:57:23.484Z,94949
2023-06-29T09:00:48.736Z,94953
2023-06-29T09:04:13.956Z,94944
2023-06-29T09:07:39.183Z,94948
2023-06-29T09:11:04.427Z,94943
2023-06-29T09:14:29.622Z,94953
2023-06-29T09:17:54.848Z,94947
2023-06-29T09:21:20.060Z,94950
2023-06-29T09:24:57.629Z,94944
2023-06-29T09:28:10.563Z,94945
2023-06-29T09:31:35.820Z,94950
2023-06-29T09:35:01.024Z,94949
2023-06-29T09:38:26.237Z,94936
2023-06-29T09:41:51.538Z,94936
2023-06-29T09:45:16.706Z,94935
2023-06-29T09:52:07.163Z,94935
2023-06-29T09:55:32.384Z,94935
2023-06-29T09:58:57.610Z,94934
2023-06-29T10:02:22.935Z,94935
2023-06-29T10:05:48.125Z,94933
2023-06-29T10:09:13.385Z,94935
2023-06-29T10:12:38.639Z,94930
2023-06-29T10:16:03.941Z,94929
2023-06-29T10:19:29.260Z,94923
2023-06-29T10:22:54.360Z,94917
2023-06-29T10:26:19.614Z,94909
2023-06-29T10:29:44.877Z,94904
2023-06-29T10:33:10.127Z,94908
2023-06-29T10:36:35.380Z,94905
2023-06-29T10:40:00.958Z,94900
2023-06-29T10:43:26.217Z,94899
2023-06-29T10:46:51.446Z,94892
2023-06-29T10:50:16.686Z,94887
2023-06-29T10:53:41.946Z,94878
2023-06-29T10:57:07.130Z,94883
2023-06-29T11:00:32.364Z,94883
2023-06-29T11:03:57.652Z,94879
2023-06-29T11:07:22.923Z,94877
2023-06-29T11:10:48.178Z,94869
2023-06-29T11:14:13.310Z,94870
2023-06-29T11:17:38.686Z,94871
2023-06-29T11:21:03.935Z,94865
2023-06-29T11:24:29.176Z,94867
2023-06-29T11:27:54.451Z,94862
2023-06-29T11:31:19.681Z,94861
2023-06-29T11:34:44.901Z,94850
2023-06-29T11:38:10.176Z,94844
2023-06-29T11:41:35.472Z,94844
2023-06-29T11:45:00.725Z,94839
2023-06-29T11:48:25.915Z,94842
2023-06-29T11:51:51.147Z,94839
2023-06-29T11:55:17.148Z,94836
2023-06-29T11:58:42.380Z,94836
2023-06-29T12:02:07.707Z,94833
2023-06-29T12:05:32.916Z,94833
2023-06-29T12:08:58.214Z,94822
2023-06-29T12:12:23.415Z,94820
2023-06-29T12:19:14.128Z,94819
2023-06-29T12:22:39.145Z,94813
2023-06-29T12:26:04.371Z,94821
2023-06-29T12:29:29.609Z,94818
2023-06-29T12:32:54.866Z,94811
2023-06-29T12:36:20.104Z,94813
2023-06-29T12:39:45.334Z,94814
2023-06-29T12:43:10.592Z,94803
2023-06-29T12:46:36.034Z,94802
2023-06-29T12:50:01.189Z,94799
2023-06-29T12:53:26.445Z,94801
2023-06-29T12:56:51.666Z,94800
2023-06-29T13:00:16.920Z,94798
2023-06-29T13:03:42.792Z,94793
2023-06-29T13:07:08.053Z,94794
2023-06-29T13:10:34.420Z,94795
2023-06-29T13:13:58.670Z,94793
2023-06-29T13:17:23.917Z,94794
2023-06-29T13:20:49.192Z,94781
2023-06-29T13:24:14.535Z,94786
2023-06-29T13:27:39.815Z,94781
2023-06-29T13:31:05.151Z,94783
2023-06-29T13:34:32.005Z,94782
2023-06-29T13:37:55.876Z,94779
2023-06-29T13:41:21.451Z,94774
2023-06-29T13:44:46.853Z,94773
2023-06-29T13:48:12.147Z,94774
2023-06-29T13:51:37.356Z,94767
2023-06-29T13:55:02.635Z,94770
2023-06-29T13:58:27.916Z,94769
2023-06-29T14:01:53.296Z,94762
2023-06-29T14:05:18.500Z,94761
2023-06-29T14:08:43.756Z,94753
2023-06-29T14:12:09.062Z,94750
2023-06-29T14:15:34.316Z,94750
2023-06-29T14:18:59.634Z,94752
2023-06-29T14:22:24.821Z,94743
2023-06-29T14:25:50.099Z,94741
2023-06-29T14:29:15.343Z,94740
2023-06-29T14:32:40.584Z,94743
2023-06-29T14:36:05.810Z,94729
2023-06-29T14:39:31.050Z,94731
2023-06-29T14:42:56.292Z,94731
2023-06-29T14:46:21.614Z,94732
2023-06-29T14:49:46.824Z,94728
2023-06-29T14:53:12.190Z,94727
2023-06-29T14:56:37.390Z,94721
2023-06-29T15:00:02.640Z,94717
2023-06-29T15:03:27.987Z,94716
2023-06-29T15:06:53.216Z,94712
2023-06-29T15:10:18.463Z,94709
2023-06-29T15:47:00.674Z,94699
2023-06-29T15:50:25.911Z,94703
2023-06-29T15:53:51.207Z,94697
2023-06-29T15:57:16.429Z,94690
2023-06-29T16:00:41.744Z,94690
2023-06-29T16:04:07.064Z,94687
2023-06-29T16:07:32.346Z,94687
2023-06-29T16:10:57.551Z,94683
2023-06-29T16:14:22.847Z,94678
2023-06-29T16:17:48.130Z,94670
2023-06-29T16:21:13.438Z,94667
2023-06-29T16:24:38.665Z,94668
2023-06-29T16:28:03.916Z,94664
2023-06-29T16:31:29.267Z,94662
2023-06-29T16:34:54.442Z,94657
2023-06-29T16:38:19.709Z,94657
2023-06-29T16:41:44.975Z,94653
2023-06-29T16:45:10.234Z,94653
2023-06-29T16:48:35.530Z,94653
2023-06-29T16:52:00.774Z,94653
2023-06-29T16:55:26.086Z,94652
2023-06-29T16:58:51.322Z,94649
2023-06-29T17:02:16.643Z,94656
2023-06-29T17:05:41.937Z,94655
2023-06-29T17:09:07.192Z,94657
2023-06-29T17:12:32.548Z,94657
2023-06-29T17:15:57.790Z,94656
2023-06-29T17:19:23.057Z,94655
2023-06-29T17:22:48.333Z,94654
2023-06-29T17:26:13.644Z,94658
2023-06-29T17:29:39.002Z,94656
2023-06-29T17:33:04.330Z,94652
2023-06-29T17:36:29.583Z,94650
2023-06-29T17:39:54.835Z,94644
2023-06-29T17:43:20.072Z,94653
2023-06-29T17:46:45.374Z,94650
2023-06-29T17:50:10.594Z,94650
2023-06-29T17:53:35.847Z,94651
2023-06-29T17:57:01.092Z,94649
2023-06-29T18:00:26.345Z,94647
2023-06-29T18:03:51.737Z,94642
2023-06-29T18:07:16.915Z,94640
2023-06-29T18:10:42.154Z,94641
2023-06-29T18:14:07.444Z,94646
2023-06-29T18:17:32.801Z,94648
2023-06-29T18:20:58.053Z,94649
2023-06-29T18:24:23.401Z,94656
2023-06-29T18:27:48.611Z,94658
2023-06-29T18:31:13.943Z,94664
2023-06-29T18:34:39.312Z,94664
2023-06-29T18:38:04.641Z,94658
2023-06-29T18:41:29.957Z,94659
2023-06-29T18:44:55.278Z,94656
2023-06-29T18:48:20.667Z,94660
2023-06-29T18:51:45.907Z,94660
2023-06-29T18:55:11.190Z,94666
2023-06-29T18:58:36.424Z,94672
2023-06-29T19:02:01.798Z,94666
2023-06-29T19:05:26.999Z,94666
2023-06-29T19:08:52.257Z,94665
2023-06-29T19:12:17.512Z,94660
2023-06-29T19:15:42.766Z,94657
2023-06-29T19:19:08.052Z,94667
2023-06-29T19:22:33.357Z,94658
2023-06-29T19:25:58.607Z,94659
2023-06-29T19:29:23.861Z,94662
2023-06-29T19:32:49.065Z,94669
2023-06-29T19:36:14.307Z,94667
2023-06-29T19:39:39.563Z,94665
2023-06-29T19:43:04.787Z,94672
2023-06-29T19:46:30.157Z,94673
2023-06-29T19:49:55.473Z,94674
2023-06-29T19:53:20.768Z,94681
2023-06-29T19:56:46.055Z,94681
2023-06-29T20:00:11.426Z,94686
2023-06-29T20:03:36.755Z,94684
2023-06-29T20:07:01.910Z,94686
2023-06-29T20:10:27.177Z,94689
2023-06-29T20:13:52.482Z,94693
2023-06-29T20:17:17.710Z,94692
2023-06-29T20:20:42.937Z,94690
2023-06-29T20:24:08.112Z,94687
2023-06-29T20:27:33.361Z,94687
2023-06-29T20:30:58.591Z,94695
2023-06-29T20:34:23.795Z,94695
2023-06-29T20:37:49.069Z,94690
2023-06-29T20:41:14.294Z,94695
2023-06-29T20:44:39.518Z,94692
2023-06-29T20:48:04.821Z,94696
2023-06-29T20:51:29.969Z,94693
2023-06-29T20:54:55.232Z,94688
2023-06-29T20:58:20.515Z,94690
2023-06-29T21:01:45.744Z,94689
2023-06-29T21:05:10.996Z,94687
2023-06-29T21:08:36.177Z,94678
2023-06-29T21:12:01.440Z,94686
2023-06-29T21:15:26.653Z,94683
2023-06-29T21:18:51.906Z,94686
2023-06-29T21:22:18.276Z,94684
2023-06-29T21:25:42.477Z,94684
2023-06-29T21:29:17.878Z,94682
2023-06-29T21:32:32.873Z,94682
2023-06-29T21:35:58.085Z,94676
2023-06-29T21:39:23.296Z,94678
2023-06-29T21:42:48.519Z,94669
2023-06-29T21:46:13.787Z,94673
2023-06-29T21:49:39.059Z,94667
2023-06-29T21:53:04.223Z,94667
2023-06-29T21:56:29.466Z,94663
2023-06-29T21:59:54.698Z,94663
2023-06-29T22:03:20.076Z,94666
2023-06-29T22:06:45.214Z,94665
2023-06-29T22:10:10.474Z,94662
2023-06-29T22:13:35.704Z,94663
2023-06-29T22:17:00.992Z,94661
2023-06-29T22:20:26.191Z,94660
2023-06-29T22:23:51.387Z,94650
2023-06-29T22:27:16.632Z,94654
2023-06-29T22:30:41.852Z,94651
2023-06-29T22:34:07.080Z,94652
2023-06-29T22:37:32.316Z,94650
2023-06-29T22:40:57.516Z,94655
2023-06-29T22:44:22.753Z,94656
2023-06-29T22:47:47.995Z,94660
2023-06-29T22:51:13.274Z,94657
2023-06-29T22:54:38.465Z,94653
2023-06-29T22:58:03.697Z,94654
2023-06-29T23:01:28.924Z,94655
2023-06-29T23:04:54.235Z,94655
2023-06-29T23:08:19.450Z,94658
2023-06-29T23:11:44.696Z,94649
2023-06-29T23:15:09.908Z,94650
2023-06-29T23:18:35.183Z,94644
2023-06-29T23:22:00.376Z,94644
2023-06-29T23:25:25.602Z,94650
2023-06-29T23:28:50.856Z,94641
2023-06-29T23:32:16.097Z,94638
2023-06-29T23:35:41.334Z,94638
2023-06-29T23:39:06.614Z,94633
2023-06-29T23:42:31.845Z,94636
2023-06-29T23:45:57.143Z,94638
2023-06-29T23:49:22.327Z,94629
2023-06-29T23:52:47.602Z,94628
2023-06-29T23:56:12.851Z,94624
2023-06-29T23:59:38.093Z,94631
